createdAt,value
2019-05-25T00:01:34.266Z,2.90
2019-05-25T00:04:02.979Z,3.08
2019-05-25T00:06:31.552Z,2.33
2019-05-25T00:09:00.229Z,2.58
2019-05-25T00:11:28.865Z,3.58
2019-05-25T00:13:57.433Z,3.50
2019-05-25T00:16:25.959Z,3.22
2019-05-25T00:18:54.599Z,3.20
2019-05-25T00:21:23.161Z,2.85
2019-05-25T00:23:51.851Z,3.00
2019-05-25T00:26:20.420Z,3.47
2019-05-25T00:28:48.915Z,3.37
2019-05-25T00:31:17.598Z,3.50
2019-05-25T00:33:46.155Z,3.45
2019-05-25T00:36:14.816Z,3.22
2019-05-25T00:38:43.320Z,3.17
2019-05-25T00:41:11.822Z,3.37
2019-05-25T00:43:40.456Z,3.25
2019-05-25T00:46:09.272Z,3.87
2019-05-25T00:48:37.774Z,3.92
2019-05-25T00:51:06.367Z,3.10
2019-05-25T00:53:35.029Z,3.40
2019-05-25T00:56:03.796Z,3.50
2019-05-25T00:58:32.363Z,3.55
2019-05-25T01:01:01.040Z,3.72
2019-05-25T01:03:29.588Z,3.37
2019-05-25T01:05:58.148Z,3.17
2019-05-25T01:08:26.823Z,4.28
2019-05-25T01:10:55.520Z,4.08
2019-05-25T01:13:24.012Z,4.00
2019-05-25T01:15:52.620Z,3.98
2019-05-25T01:18:21.252Z,3.90
2019-05-25T01:20:49.878Z,3.92
2019-05-25T01:23:18.424Z,4.70
2019-05-25T01:25:47.053Z,4.70
2019-05-25T01:28:15.683Z,4.97
2019-05-25T01:30:44.350Z,5.35
2019-05-25T01:33:12.861Z,5.70
2019-05-25T01:35:41.579Z,5.17
2019-05-25T01:38:10.267Z,5.87
2019-05-25T01:40:38.836Z,6.75
2019-05-25T01:43:07.474Z,6.08
2019-05-25T01:45:36.117Z,6.30
2019-05-25T01:48:04.849Z,6.35
2019-05-25T01:50:33.416Z,6.42
2019-05-25T01:53:02.269Z,6.08
2019-05-25T01:55:30.829Z,5.78
2019-05-25T01:57:59.951Z,6.08
2019-05-25T02:00:28.729Z,5.40
2019-05-25T02:02:57.363Z,6.50
2019-05-25T02:05:25.997Z,5.83
2019-05-25T02:07:54.521Z,5.95
2019-05-25T02:10:23.097Z,6.45
2019-05-25T02:12:51.708Z,6.17
2019-05-25T02:15:20.377Z,6.62
2019-05-25T02:17:48.878Z,6.92
2019-05-25T02:20:17.613Z,6.85
2019-05-25T02:22:46.119Z,6.78
2019-05-25T02:25:18.296Z,6.55
2019-05-25T02:27:46.026Z,6.30
2019-05-25T02:30:15.263Z,7.58
2019-05-25T02:32:43.823Z,6.28
2019-05-25T02:35:15.393Z,5.90
2019-05-25T02:37:44.027Z,5.78
2019-05-25T02:40:12.857Z,6.37
2019-05-25T02:42:41.453Z,5.85
2019-05-25T02:45:10.086Z,6.00
2019-05-25T02:47:38.727Z,5.72
2019-05-25T02:50:10.537Z,4.80
2019-05-25T02:52:39.171Z,5.62
2019-05-25T02:55:10.442Z,4.90
2019-05-25T02:57:39.045Z,4.15
2019-05-25T03:00:08.608Z,5.00
2019-05-25T03:02:37.396Z,4.58
2019-05-25T03:05:09.955Z,5.10
2019-05-25T03:07:40.287Z,4.20
2019-05-25T03:10:09.332Z,4.62
2019-05-25T03:12:38.805Z,4.50
2019-05-25T03:15:10.712Z,4.83
2019-05-25T03:17:39.275Z,5.83
2019-05-25T03:20:07.948Z,4.85
2019-05-25T03:22:36.588Z,4.78
2019-05-25T03:25:07.201Z,5.62
2019-05-25T03:27:35.880Z,7.10
2019-05-25T03:30:06.212Z,5.80
2019-05-25T03:32:34.858Z,5.95
2019-05-25T03:35:04.520Z,5.12
2019-05-25T03:37:33.107Z,6.33
2019-05-25T03:40:01.772Z,5.37
2019-05-25T03:42:30.372Z,6.03
2019-05-25T03:44:58.935Z,4.62
2019-05-25T03:47:27.576Z,5.12
2019-05-25T03:49:56.188Z,4.20
2019-05-25T03:52:24.746Z,4.20
2019-05-25T03:54:53.398Z,5.28
2019-05-25T03:57:22.051Z,4.90
2019-05-25T03:59:50.683Z,4.22
2019-05-25T04:02:19.248Z,4.72
2019-05-25T04:04:47.771Z,4.10
2019-05-25T04:07:16.399Z,4.25
2019-05-25T04:09:45.029Z,4.47
2019-05-25T04:12:13.565Z,5.03
2019-05-25T04:14:42.054Z,3.95
2019-05-25T04:17:10.684Z,4.25
2019-05-25T04:19:39.348Z,3.87
2019-05-25T04:22:07.858Z,3.45
2019-05-25T04:24:36.403Z,2.87
2019-05-25T04:27:05.091Z,3.08
2019-05-25T04:29:33.716Z,4.00
2019-05-25T04:32:02.282Z,4.03
2019-05-25T04:34:30.780Z,3.33
2019-05-25T04:36:59.417Z,3.00
2019-05-25T04:39:28.212Z,3.42
2019-05-25T04:41:56.788Z,2.55
2019-05-25T04:44:25.422Z,2.72
2019-05-25T04:46:53.937Z,2.70
2019-05-25T04:49:22.577Z,2.65
2019-05-25T04:51:51.160Z,1.52
2019-05-25T04:54:19.739Z,1.32
2019-05-25T04:56:48.514Z,1.40
2019-05-25T04:59:16.960Z,1.50
2019-05-25T05:01:45.642Z,1.35
2019-05-25T05:04:14.325Z,0.80
2019-05-25T05:06:43.100Z,0.90
2019-05-25T05:09:11.732Z,0.93
2019-05-25T05:11:40.370Z,0.95
2019-05-25T05:14:08.992Z,0.80
2019-05-25T05:16:37.583Z,0.60
2019-05-25T05:19:06.210Z,1.27
2019-05-25T05:21:34.861Z,0.80
2019-05-25T05:24:03.524Z,1.17
2019-05-25T05:26:32.081Z,1.12
2019-05-25T05:29:00.648Z,1.55
2019-05-25T05:31:29.320Z,0.80
2019-05-25T05:33:57.955Z,1.00
2019-05-25T05:36:27.660Z,0.90
2019-05-25T05:38:57.242Z,0.85
2019-05-25T05:41:26.780Z,1.02
2019-05-25T05:43:57.087Z,2.08
2019-05-25T05:46:27.831Z,1.10
2019-05-25T05:48:57.273Z,1.20
2019-05-25T05:51:27.502Z,1.15
2019-05-25T05:53:56.265Z,1.45
2019-05-25T05:56:24.952Z,1.50
2019-05-25T05:58:53.591Z,1.57
2019-05-25T06:01:22.190Z,1.80
2019-05-25T06:03:50.685Z,2.02
2019-05-25T06:06:19.332Z,2.20
2019-05-25T06:08:48.004Z,2.20
2019-05-25T06:11:16.611Z,3.67
2019-05-25T06:13:45.184Z,2.00
2019-05-25T06:16:13.918Z,2.90
2019-05-25T06:18:42.601Z,2.30
2019-05-25T06:21:11.247Z,2.60
2019-05-25T06:23:39.915Z,2.50
2019-05-25T06:26:08.547Z,2.02
2019-05-25T06:28:37.035Z,3.30
2019-05-25T06:31:05.709Z,3.52
2019-05-25T06:33:34.409Z,4.33
2019-05-25T06:36:02.964Z,3.95
2019-05-25T06:38:31.580Z,3.30
2019-05-25T06:41:00.206Z,3.75
2019-05-25T06:43:28.907Z,4.80
2019-05-25T06:45:57.455Z,4.67
2019-05-25T06:48:26.006Z,3.37
2019-05-25T06:50:54.642Z,3.40
2019-05-25T06:53:23.319Z,3.60
2019-05-25T06:55:51.839Z,3.00
2019-05-25T06:58:20.500Z,3.98
2019-05-25T07:00:49.128Z,2.52
2019-05-25T07:03:17.712Z,2.33
2019-05-25T07:05:46.360Z,3.10
2019-05-25T07:08:15.029Z,2.72
2019-05-25T07:10:43.653Z,2.85
2019-05-25T07:13:12.204Z,2.90
2019-05-25T07:15:40.875Z,1.67
2019-05-25T07:18:09.512Z,1.32
2019-05-25T07:20:38.079Z,4.92
2019-05-25T07:23:06.699Z,2.30
2019-05-25T07:25:35.332Z,1.92
2019-05-25T07:28:03.978Z,1.75
2019-05-25T07:30:32.584Z,1.65
2019-05-25T07:33:01.093Z,2.62
2019-05-25T07:35:29.791Z,2.20
2019-05-25T07:37:58.456Z,2.52
2019-05-25T07:40:27.086Z,2.75
2019-05-25T07:42:55.723Z,4.65
2019-05-25T07:45:24.331Z,3.72
2019-05-25T07:47:52.913Z,3.30
2019-05-25T07:50:21.663Z,2.40
2019-05-25T07:52:50.340Z,2.45
2019-05-25T07:55:19.040Z,1.62
2019-05-25T07:57:47.693Z,1.72
2019-05-25T08:00:16.548Z,1.92
2019-05-25T08:02:45.220Z,2.40
2019-05-25T08:05:14.130Z,2.35
2019-05-25T08:07:42.634Z,1.27
2019-05-25T08:10:13.570Z,1.50
2019-05-25T08:12:42.229Z,1.60
2019-05-25T08:15:11.055Z,1.20
2019-05-25T08:17:39.685Z,0.80
2019-05-25T08:20:08.552Z,1.02
2019-05-25T08:22:37.119Z,1.10
2019-05-25T08:25:07.450Z,0.78
2019-05-25T08:27:36.109Z,1.20
2019-05-25T08:30:06.930Z,1.10
2019-05-25T08:32:35.480Z,0.80
2019-05-25T08:35:05.649Z,2.72
2019-05-25T08:37:34.279Z,1.00
2019-05-25T08:40:02.922Z,1.32
2019-05-25T08:42:31.570Z,1.27
2019-05-25T08:45:00.842Z,0.90
2019-05-25T08:47:29.527Z,1.17
2019-05-25T08:49:58.087Z,1.82
2019-05-25T08:52:26.665Z,1.20
2019-05-25T08:54:56.668Z,1.25
2019-05-25T08:57:25.447Z,1.70
2019-05-25T08:59:54.192Z,1.07
2019-05-25T09:02:22.822Z,1.00
2019-05-25T09:04:51.308Z,1.02
2019-05-25T09:07:19.843Z,1.22
2019-05-25T09:09:48.518Z,1.10
2019-05-25T09:12:17.085Z,1.00
2019-05-25T09:14:45.568Z,1.30
2019-05-25T09:17:14.293Z,1.00
2019-05-25T09:19:42.922Z,0.80
2019-05-25T09:22:11.528Z,0.80
2019-05-25T09:24:40.024Z,1.20
2019-05-25T09:27:08.580Z,1.30
2019-05-25T09:29:37.248Z,1.10
2019-05-25T09:32:07.185Z,2.67
2019-05-25T09:34:35.818Z,2.55
2019-05-25T09:37:04.419Z,1.65
2019-05-25T09:39:33.046Z,0.70
2019-05-25T09:42:01.609Z,0.85
2019-05-25T09:44:30.135Z,0.98
2019-05-25T09:46:58.728Z,1.35
2019-05-25T09:49:27.343Z,1.00
2019-05-25T09:51:56.017Z,1.00
2019-05-25T09:54:24.590Z,0.98
2019-05-25T09:56:53.140Z,1.87
2019-05-25T09:59:21.812Z,1.72
2019-05-25T10:01:50.457Z,0.95
2019-05-25T10:04:19.038Z,1.32
2019-05-25T10:06:47.689Z,1.20
2019-05-25T10:09:16.396Z,1.47
2019-05-25T10:11:44.954Z,1.22
2019-05-25T10:14:13.554Z,1.20
2019-05-25T10:16:42.186Z,1.60
2019-05-25T10:19:10.678Z,0.82
2019-05-25T10:21:39.227Z,1.05
2019-05-25T10:24:07.852Z,1.15
2019-05-25T10:26:36.406Z,3.37
2019-05-25T10:29:05.074Z,2.85
2019-05-25T10:31:33.626Z,2.12
2019-05-25T10:34:02.306Z,2.37
2019-05-25T10:36:31.106Z,1.55
2019-05-25T10:38:59.658Z,2.17
2019-05-25T10:41:28.233Z,2.52
2019-05-25T10:43:56.965Z,2.72
2019-05-25T10:46:25.546Z,2.22
2019-05-25T10:48:54.063Z,2.75
2019-05-25T10:51:22.611Z,2.20
2019-05-25T10:53:52.232Z,2.20
2019-05-25T10:56:20.799Z,1.50
2019-05-25T10:58:49.465Z,1.67
2019-05-25T11:01:18.274Z,2.52
2019-05-25T11:03:46.841Z,2.15
2019-05-25T11:06:15.439Z,2.58
2019-05-25T11:08:43.942Z,3.37
2019-05-25T11:11:12.587Z,2.27
2019-05-25T11:13:41.221Z,2.87
2019-05-25T11:16:09.858Z,3.17
2019-05-25T11:18:38.487Z,2.47
2019-05-25T11:21:07.160Z,2.20
2019-05-25T11:23:35.721Z,2.17
2019-05-25T11:26:04.284Z,2.42
2019-05-25T11:28:32.950Z,2.20
2019-05-25T11:31:01.584Z,2.37
2019-05-25T11:33:30.149Z,2.15
2019-05-25T11:35:58.839Z,1.65
2019-05-25T11:38:27.389Z,2.20
2019-05-25T11:40:55.952Z,2.70
2019-05-25T11:43:24.545Z,2.25
2019-05-25T11:45:53.281Z,2.50
2019-05-25T11:48:21.913Z,2.33
2019-05-25T11:50:50.509Z,1.60
2019-05-25T11:53:19.138Z,2.05
2019-05-25T11:55:47.793Z,1.90
2019-05-25T11:58:16.386Z,2.40
2019-05-25T12:00:45.019Z,1.90
2019-05-25T12:03:13.644Z,2.47
2019-05-25T12:05:42.327Z,2.00
2019-05-25T12:08:10.969Z,3.00
2019-05-25T12:10:39.600Z,2.25
2019-05-25T12:13:08.276Z,2.45
2019-05-25T12:15:36.911Z,2.22
2019-05-25T12:18:05.653Z,2.30
2019-05-25T12:20:34.445Z,1.80
2019-05-25T12:23:03.679Z,1.82
2019-05-25T12:25:32.526Z,2.33
2019-05-25T12:28:01.074Z,2.37
2019-05-25T12:30:40.196Z,2.92
2019-05-25T12:33:00.113Z,1.50
2019-05-25T12:35:28.706Z,2.10
2019-05-25T12:37:57.262Z,2.10
2019-05-25T12:40:26.599Z,2.00
2019-05-25T12:42:55.220Z,1.05
2019-05-25T12:45:24.507Z,1.10
2019-05-25T12:47:54.226Z,1.22
2019-05-25T12:50:23.003Z,1.52
2019-05-25T12:52:51.634Z,0.93
2019-05-25T12:55:20.277Z,0.93
2019-05-25T12:57:51.382Z,0.78
2019-05-25T13:00:19.803Z,0.60
2019-05-25T13:02:48.402Z,1.40
2019-05-25T13:05:31.185Z,0.93
2019-05-25T13:07:47.458Z,0.80
2019-05-25T13:10:16.430Z,0.60
2019-05-25T13:12:45.019Z,0.70
2019-05-25T13:15:13.919Z,0.60
2019-05-25T13:17:42.641Z,0.70
2019-05-25T13:20:11.477Z,0.70
2019-05-25T13:22:40.092Z,0.80
2019-05-25T13:25:09.583Z,0.80
2019-05-25T13:27:38.201Z,0.70
2019-05-25T13:30:08.567Z,0.60
2019-05-25T13:32:37.095Z,0.80
2019-05-25T13:35:09.717Z,0.60
2019-05-25T13:37:38.350Z,0.90
2019-05-25T13:40:07.314Z,0.60
2019-05-25T13:42:35.964Z,0.60
2019-05-25T13:45:06.587Z,1.42
2019-05-25T13:47:35.253Z,0.70
2019-05-25T13:50:08.493Z,0.70
2019-05-25T13:52:37.139Z,0.53
2019-05-25T13:55:06.090Z,0.70
2019-05-25T13:57:34.655Z,0.50
2019-05-25T14:00:03.301Z,0.45
2019-05-25T14:02:32.077Z,0.50
2019-05-25T14:05:00.657Z,0.50
2019-05-25T14:07:29.280Z,0.60
2019-05-25T14:09:57.824Z,0.60
2019-05-25T14:12:26.427Z,0.60
2019-05-25T14:14:55.064Z,0.60
2019-05-25T14:17:23.719Z,0.50
2019-05-25T14:19:52.378Z,0.65
2019-05-25T14:22:20.968Z,0.50
2019-05-25T14:24:49.568Z,0.50
2019-05-25T14:27:18.218Z,0.50
2019-05-25T14:29:46.845Z,0.50
2019-05-25T14:32:15.471Z,0.40
2019-05-25T14:34:44.035Z,0.40
2019-05-25T14:37:12.630Z,0.50
2019-05-25T14:39:41.294Z,0.40
2019-05-25T14:42:09.935Z,0.53
2019-05-25T14:44:38.418Z,0.40
2019-05-25T14:47:07.047Z,0.40
2019-05-25T14:49:35.675Z,0.60
2019-05-25T14:52:04.463Z,0.40
2019-05-25T14:54:32.996Z,0.40
2019-05-25T14:57:01.675Z,0.50
2019-05-25T14:59:30.303Z,0.40
2019-05-25T15:02:02.455Z,0.50
2019-05-25T15:04:29.227Z,0.40
2019-05-25T15:06:58.709Z,0.40
2019-05-25T15:09:27.299Z,0.60
2019-05-25T15:11:55.932Z,0.40
2019-05-25T15:14:24.664Z,0.50
2019-05-25T15:16:53.459Z,0.50
2019-05-25T15:19:21.996Z,0.40
2019-05-25T15:21:50.599Z,0.50
2019-05-25T15:24:19.257Z,0.50
2019-05-25T15:26:47.892Z,0.40
2019-05-25T15:29:16.470Z,0.50
2019-05-25T15:31:45.223Z,0.50
2019-05-25T15:34:13.792Z,0.50
2019-05-25T15:36:42.280Z,0.50
2019-05-25T15:39:10.946Z,0.70
2019-05-25T15:41:39.577Z,0.60
2019-05-25T15:44:08.165Z,0.80
2019-05-25T15:46:36.742Z,1.05
2019-05-25T15:49:05.474Z,0.80
2019-05-25T15:51:34.141Z,0.88
2019-05-25T15:54:02.783Z,0.88
2019-05-25T15:56:31.351Z,1.10
2019-05-25T15:59:00.032Z,1.00
2019-05-25T16:01:28.708Z,0.90
2019-05-25T16:03:57.274Z,0.82
2019-05-25T16:06:25.972Z,0.80
2019-05-25T16:08:54.755Z,0.70
2019-05-25T16:11:23.394Z,0.60
2019-05-25T16:13:52.405Z,0.70
2019-05-25T16:16:29.629Z,0.62
2019-05-25T16:18:51.469Z,0.72
2019-05-25T16:21:19.953Z,0.70
2019-05-25T16:23:48.621Z,0.80
2019-05-25T16:26:17.173Z,0.85
2019-05-25T16:28:45.806Z,0.95
2019-05-25T16:31:14.335Z,0.93
2019-05-25T16:33:42.894Z,0.90
2019-05-25T16:36:11.537Z,1.65
2019-05-25T16:38:40.132Z,1.00
2019-05-25T16:41:08.698Z,0.88
2019-05-25T16:43:37.271Z,0.85
2019-05-25T16:46:05.936Z,1.55
2019-05-25T16:48:34.574Z,0.88
2019-05-25T16:51:03.278Z,0.90
2019-05-25T16:53:31.888Z,0.78
2019-05-25T16:56:00.456Z,0.90
2019-05-25T16:58:29.094Z,1.00
2019-05-25T17:00:57.777Z,0.93
2019-05-25T17:03:28.734Z,0.78
2019-05-25T17:05:56.765Z,0.85
2019-05-25T17:08:25.399Z,0.80
2019-05-25T17:10:53.962Z,0.70
2019-05-25T17:13:22.675Z,0.80
2019-05-25T17:15:51.234Z,0.90
2019-05-25T17:18:19.878Z,0.90
2019-05-25T17:20:48.551Z,0.70
2019-05-25T17:23:17.191Z,0.75
2019-05-25T17:25:45.757Z,0.88
2019-05-25T17:28:14.423Z,1.02
2019-05-25T17:30:45.073Z,0.65
2019-05-25T17:33:13.939Z,0.82
2019-05-25T17:35:42.915Z,1.17
2019-05-25T17:38:11.533Z,2.70
2019-05-25T17:40:40.196Z,1.50
2019-05-25T17:43:08.905Z,1.37
2019-05-25T17:45:37.540Z,2.65
2019-05-25T17:48:06.213Z,1.85
2019-05-25T17:50:34.832Z,1.30
2019-05-25T17:53:03.388Z,1.20
2019-05-25T17:55:32.031Z,1.10
2019-05-25T17:58:00.701Z,2.12
2019-05-25T18:00:44.673Z,2.17
2019-05-25T18:03:13.353Z,2.20
2019-05-25T18:05:41.993Z,1.72
2019-05-25T18:08:10.931Z,2.40
2019-05-25T18:10:51.908Z,1.80
2019-05-25T18:13:09.902Z,1.60
2019-05-25T18:15:38.521Z,3.05
2019-05-25T18:18:07.790Z,1.90
2019-05-25T18:20:36.428Z,1.92
2019-05-25T18:23:05.153Z,3.00
2019-05-25T18:25:33.845Z,2.98
2019-05-25T18:28:02.487Z,2.70
2019-05-25T18:30:31.147Z,2.30
2019-05-25T18:32:59.722Z,2.02
2019-05-25T18:35:28.320Z,2.00
2019-05-25T18:37:57.022Z,2.17
2019-05-25T18:40:25.691Z,1.60
2019-05-25T18:42:54.255Z,2.12
2019-05-25T18:45:22.889Z,1.70
2019-05-25T18:47:51.584Z,2.33
2019-05-25T18:50:20.621Z,2.40
2019-05-25T18:52:49.328Z,2.52
2019-05-25T18:55:18.436Z,3.35
2019-05-25T18:57:47.002Z,3.62
2019-05-25T19:00:17.432Z,4.03
2019-05-25T19:02:46.122Z,3.50
2019-05-25T19:05:15.156Z,4.12
2019-05-25T19:07:43.804Z,3.98
2019-05-25T19:10:12.782Z,4.17
2019-05-25T19:12:41.424Z,3.60
2019-05-25T19:15:10.552Z,4.33
2019-05-25T19:17:39.415Z,4.00
2019-05-25T19:20:08.995Z,3.55
2019-05-25T19:22:37.818Z,3.90
2019-05-25T19:25:09.737Z,2.92
2019-05-25T19:27:38.350Z,3.42
2019-05-25T19:30:11.397Z,3.80
2019-05-25T19:32:39.965Z,3.40
2019-05-25T19:35:10.607Z,3.98
2019-05-25T19:37:42.238Z,3.05
2019-05-25T19:40:09.864Z,2.67
2019-05-25T19:42:38.533Z,2.70
2019-05-25T19:45:09.077Z,3.12
2019-05-25T19:47:37.710Z,2.40
2019-05-25T19:50:07.277Z,2.20
2019-05-25T19:52:35.918Z,2.90
2019-05-25T19:55:06.522Z,3.77
2019-05-25T19:57:35.313Z,2.80
2019-05-25T20:00:07.179Z,2.50
2019-05-25T20:02:35.805Z,2.75
2019-05-25T20:05:16.498Z,3.15
2019-05-25T20:07:37.657Z,3.20
2019-05-25T20:10:08.070Z,2.90
2019-05-25T20:12:36.723Z,2.47
2019-05-25T20:15:09.184Z,2.30
2019-05-25T20:17:37.738Z,2.40
2019-05-25T20:20:07.438Z,2.75
2019-05-25T20:22:36.106Z,2.75
2019-05-25T20:25:06.525Z,3.15
2019-05-25T20:27:35.269Z,3.17
2019-05-25T20:30:05.733Z,3.17
2019-05-25T20:32:34.300Z,3.92
2019-05-25T20:35:02.901Z,4.05
2019-05-25T20:37:31.552Z,4.17
2019-05-25T20:40:00.189Z,3.90
2019-05-25T20:42:28.797Z,4.25
2019-05-25T20:44:57.295Z,4.30
2019-05-25T20:47:25.868Z,3.98
2019-05-25T20:49:54.542Z,3.90
2019-05-25T20:52:23.191Z,3.20
2019-05-25T20:54:51.857Z,3.17
2019-05-25T20:57:20.633Z,3.47
2019-05-25T20:59:49.232Z,4.35
2019-05-25T21:02:17.789Z,3.00
2019-05-25T21:04:46.455Z,3.22
2019-05-25T21:07:15.045Z,2.92
2019-05-25T21:09:43.618Z,2.50
2019-05-25T21:12:12.210Z,4.20
2019-05-25T21:14:40.845Z,3.58
2019-05-25T21:17:09.453Z,3.35
2019-05-25T21:19:38.049Z,3.60
2019-05-25T21:22:06.694Z,3.92
2019-05-25T21:24:35.317Z,4.35
2019-05-25T21:27:04.381Z,4.35
2019-05-25T21:29:32.948Z,4.50
2019-05-25T21:32:01.506Z,4.67
2019-05-25T21:34:30.104Z,4.62
2019-05-25T21:36:58.831Z,4.30
2019-05-25T21:39:27.459Z,4.58
2019-05-25T21:41:56.131Z,5.08
2019-05-25T21:44:24.915Z,5.35
2019-05-25T21:46:53.527Z,4.55
2019-05-25T21:49:22.236Z,4.28
2019-05-25T21:51:50.936Z,4.87
2019-05-25T21:54:19.656Z,5.15
2019-05-25T21:56:48.575Z,4.75
2019-05-25T21:59:17.254Z,4.80
2019-05-25T22:01:45.836Z,4.42
2019-05-25T22:04:14.519Z,5.05
2019-05-25T22:06:43.158Z,5.42
2019-05-25T22:09:11.814Z,6.15
2019-05-25T22:11:40.619Z,5.50
2019-05-25T22:14:09.323Z,6.83
2019-05-25T22:16:37.955Z,5.72
2019-05-25T22:19:06.620Z,5.87
2019-05-25T22:21:35.251Z,5.03
2019-05-25T22:24:03.885Z,5.85
2019-05-25T22:26:32.530Z,5.10
2019-05-25T22:29:01.164Z,5.45
2019-05-25T22:31:29.803Z,6.05
2019-05-25T22:33:59.414Z,6.33
2019-05-25T22:36:39.648Z,6.72
2019-05-25T22:38:58.626Z,7.70
2019-05-25T22:41:27.304Z,6.50
2019-05-25T22:43:55.929Z,5.47
2019-05-25T22:46:24.563Z,7.17
2019-05-25T22:48:53.293Z,6.92
2019-05-25T22:51:21.876Z,6.87
2019-05-25T22:53:50.512Z,7.08
2019-05-25T22:56:19.183Z,7.47
2019-05-25T22:58:47.815Z,8.13
2019-05-25T23:01:16.443Z,9.23
2019-05-25T23:03:44.978Z,9.30
2019-05-25T23:06:13.547Z,9.18
2019-05-25T23:08:42.186Z,8.90
2019-05-25T23:11:10.808Z,8.90
2019-05-25T23:13:39.367Z,9.10
2019-05-25T23:16:09.578Z,8.45
2019-05-25T23:18:38.221Z,9.03
2019-05-25T23:21:06.860Z,8.88
2019-05-25T23:23:35.466Z,8.90
2019-05-25T23:26:04.123Z,8.18
2019-05-25T23:28:32.685Z,8.58
2019-05-25T23:31:01.419Z,9.08
2019-05-25T23:33:30.067Z,9.13
2019-05-25T23:35:58.624Z,8.55
2019-05-25T23:38:27.162Z,8.70
2019-05-25T23:40:55.856Z,8.40
2019-05-25T23:43:24.497Z,8.90
2019-05-25T23:45:53.118Z,8.60
2019-05-25T23:48:21.603Z,9.53
2019-05-25T23:50:50.238Z,9.45
2019-05-25T23:53:18.930Z,9.48
2019-05-25T23:55:47.566Z,9.40
2019-05-25T23:58:16.074Z,9.45
